»·PEaware :: HADAI KLAS-KSFO

HADAI :: KLAS-KSFO

FLIGHT INFORMATION

Flight Status: Arrived
Operator: Unknown
More flights by this operator :: More flights under this callsign
Pilot: Tamer M. (30101)
Aircraft: Cessna 700 Citation Longitude
(C700)
More flights by this aircraft type
Origin: KLAS McCarran Intl
United States
Destination: KSFO San Francisco Intl
United States
More flights between these airports :: More routes between these airports
Route: SHEAD1 KENNO RUSME DYAMD5
File this flight plan on PilotEdge
Remarks:
Altitude:
(Current/Filed)
30,000ft
Speed:
(Current/Filed)
483kts
Departed: 15-Dec-20 08:41 AM
Arrived: 15-Dec-20 10:04 AM
Distance/Time
Traveled:
359nm/1:22
Distance/Time
To Go:
Arrived

Flight Plot

Page will automatically refresh every two minutes.

Flight plan parsing failed; only flown route is shown


Map Options




Map Legend


Flown Route
Filed Route
Departure Airport
Arrival Airport
Navaid (VOR, NDB)
Fix

Horizontal Profiles

Position Reports

Time Latitude Longitude Heading Altitude Ground
Speed
15-Dec-20 08:15 36.081440 -115.170461 88 2173ft 0kts
15-Dec-20 08:16 36.081440 -115.170461 88 2173ft 0kts
15-Dec-20 08:17 36.081440 -115.170461 88 2173ft 0kts
15-Dec-20 08:18 36.081440 -115.170461 88 2173ft 0kts
15-Dec-20 08:19 36.081440 -115.170461 88 2173ft 0kts
15-Dec-20 08:20 36.081440 -115.170461 88 2173ft 0kts
15-Dec-20 08:21 36.081440 -115.170461 88 2173ft 0kts
15-Dec-20 08:22 36.081440 -115.170461 88 2173ft 0kts
15-Dec-20 08:23 36.081440 -115.170461 88 2173ft 0kts
15-Dec-20 08:24 36.081440 -115.170461 88 2173ft 0kts
15-Dec-20 08:25 36.081440 -115.170461 88 2173ft 0kts
15-Dec-20 08:26 36.081440 -115.170461 88 2173ft 0kts
15-Dec-20 08:27 36.081440 -115.170461 88 2173ft 0kts
15-Dec-20 08:28 36.081440 -115.170461 88 2173ft 0kts
15-Dec-20 08:29 36.081440 -115.170461 88 2173ft 0kts
15-Dec-20 08:30 36.081440 -115.170461 88 2173ft 0kts
15-Dec-20 08:31 36.081440 -115.170461 88 2173ft 0kts
15-Dec-20 08:32 36.081440 -115.170461 88 2173ft 0kts
15-Dec-20 08:33 36.081471 -115.169707 100 2173ft 6kts
15-Dec-20 08:34 36.079406 -115.170419 204 2178ft 12kts
15-Dec-20 08:35 36.077521 -115.171222 179 2180ft 0kts
15-Dec-20 08:36 36.077521 -115.171222 179 2180ft 0kts
15-Dec-20 08:37 36.077521 -115.171222 179 2180ft 0kts
15-Dec-20 08:38 36.077521 -115.171222 179 2180ft 0kts
15-Dec-20 08:39 36.076358 -115.170126 89 2175ft 1kts
15-Dec-20 08:40 36.076156 -115.134308 91 3537ft 145kts
15-Dec-20 08:41 36.075948 -115.071178 90 6573ft 202kts
15-Dec-20 08:42 36.075607 -114.996996 90 6996ft 218kts
15-Dec-20 08:43 36.054293 -114.931375 152 9073ft 225kts
15-Dec-20 08:44 35.990911 -114.918296 191 12053ft 253kts
15-Dec-20 08:45 35.946210 -114.987075 266 15196ft 289kts
15-Dec-20 08:46 35.942391 -115.087503 269 18218ft 300kts
15-Dec-20 08:47 35.937134 -115.184635 269 19366ft 275kts
15-Dec-20 08:48 35.932650 -115.277488 268 22018ft 278kts
15-Dec-20 08:49 35.927712 -115.375686 269 25021ft 296kts
15-Dec-20 08:50 35.922604 -115.476435 269 28021ft 294kts
15-Dec-20 08:51 35.917501 -115.575914 275 30374ft 307kts
15-Dec-20 08:53 35.911311 -115.694798 273 30387ft 384kts
15-Dec-20 08:54 35.903829 -115.830673 273 30380ft 398kts
15-Dec-20 08:55 35.897503 -115.967293 279 30370ft 393kts
15-Dec-20 08:56 35.946766 -116.079120 320 30347ft 375kts
15-Dec-20 08:57 36.036959 -116.129177 334 30348ft 350kts
15-Dec-20 08:58 36.106333 -116.210214 309 30354ft 354kts
15-Dec-20 08:59 36.176799 -116.293353 321 30344ft 351kts
15-Dec-20 09:00 36.248319 -116.376599 318 30348ft 353kts
15-Dec-20 09:01 36.319912 -116.460134 318 30345ft 353kts
15-Dec-20 09:02 36.393686 -116.547046 318 30378ft 369kts
15-Dec-20 09:03 36.467807 -116.634293 319 30399ft 367kts
15-Dec-20 09:04 36.542874 -116.720999 318 30364ft 369kts
15-Dec-20 09:05 36.624543 -116.796594 333 30388ft 368kts
15-Dec-20 09:06 36.713026 -116.860185 326 30357ft 369kts
15-Dec-20 09:07 36.800329 -116.926500 327 30377ft 369kts
15-Dec-20 09:08 36.887401 -116.993633 327 30388ft 367kts
15-Dec-20 09:08 36.959800 -117.049294 327 30398ft 369kts
15-Dec-20 09:10 37.061549 -117.127822 327 30356ft 368kts
15-Dec-20 09:11 37.148785 -117.195462 327 30378ft 368kts
15-Dec-20 09:12 37.231420 -117.259540 329 30377ft 342kts
15-Dec-20 09:12 37.299497 -117.312465 329 30335ft 343kts
15-Dec-20 09:13 37.373046 -117.383333 324 30367ft 331kts
15-Dec-20 09:15 37.458246 -117.465314 324 30373ft 332kts
15-Dec-20 09:16 37.513832 -117.558561 294 30332ft 360kts
15-Dec-20 09:16 37.512064 -117.667993 278 30338ft 381kts
15-Dec-20 09:17 37.525694 -117.790247 292 30365ft 353kts
15-Dec-20 09:18 37.527456 -117.918423 288 30373ft 360kts
15-Dec-20 09:19 37.536770 -118.044056 289 30384ft 360kts
15-Dec-20 09:20 37.546671 -118.170365 288 30369ft 362kts
15-Dec-20 09:21 37.556380 -118.295042 289 30323ft 355kts
15-Dec-20 09:22 37.565578 -118.420090 290 30342ft 358kts
15-Dec-20 09:23 37.575389 -118.547966 289 30350ft 379kts
15-Dec-20 09:24 37.586058 -118.679114 289 30347ft 379kts
15-Dec-20 09:25 37.595233 -118.811258 289 30353ft 380kts
15-Dec-20 09:26 37.604716 -118.943501 288 30378ft 380kts
15-Dec-20 09:27 37.614224 -119.077138 289 30380ft 382kts
15-Dec-20 09:28 37.622894 -119.202342 289 30280ft 343kts
15-Dec-20 09:29 37.631473 -119.321746 291 30253ft 349kts
15-Dec-20 09:30 37.628434 -119.446997 279 29261ft 370kts
15-Dec-20 09:31 37.639228 -119.572473 286 28254ft 358kts
15-Dec-20 09:32 37.647520 -119.698005 286 27400ft 353kts
15-Dec-20 09:33 37.656996 -119.822362 285 27348ft 356kts
15-Dec-20 09:34 37.666644 -119.947189 285 27376ft 356kts
15-Dec-20 09:35 37.675075 -120.072033 285 27379ft 357kts
15-Dec-20 09:36 37.684212 -120.197903 284 27369ft 362kts
15-Dec-20 09:37 37.693085 -120.324155 284 27385ft 352kts
15-Dec-20 09:38 37.700008 -120.446929 277 26972ft 362kts
15-Dec-20 09:39 37.685034 -120.571473 277 24991ft 345kts
15-Dec-20 09:40 37.677156 -120.691105 274 22995ft 347kts
15-Dec-20 09:41 37.655752 -120.810428 260 22406ft 362kts
15-Dec-20 09:42 37.643753 -120.929563 282 21080ft 330kts
15-Dec-20 09:43 37.623438 -121.044593 268 19085ft 334kts
15-Dec-20 09:44 37.600084 -121.155799 262 17071ft 345kts
15-Dec-20 09:45 37.582816 -121.272522 271 15087ft 337kts
15-Dec-20 09:46 37.577388 -121.379875 259 13040ft 293kts
15-Dec-20 09:48 37.562683 -121.494531 267 10703ft 277kts
15-Dec-20 09:48 37.555047 -121.573322 268 10023ft 270kts
15-Dec-20 09:49 37.542584 -121.666322 254 10019ft 263kts
15-Dec-20 09:50 37.515670 -121.750751 255 8271ft 257kts
15-Dec-20 09:51 37.499387 -121.834198 262 7570ft 250kts
15-Dec-20 09:52 37.489035 -121.914595 281 6479ft 209kts
15-Dec-20 09:53 37.495474 -121.975586 282 5865ft 172kts
15-Dec-20 09:54 37.498557 -122.034985 282 5021ft 157kts
15-Dec-20 09:55 37.501956 -122.091945 282 3650ft 159kts
15-Dec-20 09:56 37.521301 -122.138128 303 3023ft 146kts
15-Dec-20 09:57 37.540812 -122.184050 300 2973ft 152kts
15-Dec-20 09:58 37.557770 -122.224539 302 2378ft 121kts
15-Dec-20 09:59 37.573461 -122.261755 302 1740ft 119kts
15-Dec-20 10:00 37.588896 -122.298401 302 1108ft 118kts
15-Dec-20 10:01 37.604857 -122.336346 297 458ft 126kts
15-Dec-20 10:02 37.619867 -122.372240 297 9ft 60kts
15-Dec-20 10:03 37.624812 -122.381272 9 11ft 0kts
15-Dec-20 10:04 37.624812 -122.381272 9 11ft 0kts
15-Dec-20 10:05 37.625952 -122.383061 298 7ft 20kts
15-Dec-20 10:06 37.627485 -122.384920 303 8ft 0kts
15-Dec-20 10:07 37.627485 -122.384920 303 8ft 0kts
15-Dec-20 10:08 37.627485 -122.384920 303 8ft 0kts

Navigation Log

Ident Type
Flight plan parsing failed, navigation log unavailable